Weather reports worldwide

Advertisment
Glen Ogle, United Kingdom (3148): temperature & dewpoint: 13.03.2019 08:00:00 - 19.03.2019 08:00:00 (GMT)Glen Ogle, United Kingdom (3148): wind speed & gusts: 13.03.2019 08:00:00 - 19.03.2019 08:00:00 (GMT)Glen Ogle, United Kingdom (3148): wind direction: 13.03.2019 08:00:00 - 19.03.2019 08:00:00 (GMT)
Date & Time tt [°C] td [°C] ff [km/h] ff [kn] fx [km/h] fx [kn] dd
19.03.2019 08:00:00 4,4 2,9 24 13 - - SW
19.03.2019 07:00:00 3,9 3,9 15 8 - - W
19.03.2019 06:00:00 3,9 3,9 26 14 - - W
19.03.2019 05:00:00 3,9 3,9 13 7 - - SSW
19.03.2019 04:00:00 3,7 3,6 13 7 - - S
19.03.2019 03:00:00 3,6 3,5 11 6 - - S
19.03.2019 02:00:00 3,3 3,3 11 6 - - S
19.03.2019 01:00:00 3,1 3,1 8 4 - - SW
19.03.2019 00:00:00 2,9 2,9 8 4 - - SW
18.03.2019 23:00:00 2,9 2,9 9 5 - - S
18.03.2019 22:00:00 2,9 2,9 9 5 - - S
18.03.2019 21:00:00 2,6 2,6 5 3 - - SW
18.03.2019 20:00:00 2,6 2,6 4 2 - - S
18.03.2019 19:00:00 2,6 2,4 5 3 - - S
18.03.2019 18:00:00 3,0 2,5 8 4 - - SW
18.03.2019 17:00:00 2,9 2,0 9 5 - - S
18.03.2019 16:00:00 3,1 1,3 13 7 - - SSW
18.03.2019 15:00:00 3,1 -0,3 15 8 - - SSW
18.03.2019 14:00:00 2,2 0,4 16 9 - - S
18.03.2019 13:00:00 1,9 -0,6 15 8 - - S
18.03.2019 12:00:00 1,4 -0,5 13 7 - - SSE
18.03.2019 11:00:00 0,9 -1,1 11 6 - - S
18.03.2019 10:00:00 0,7 -1,3 11 6 - - S
18.03.2019 09:00:00 0,4 -2,0 11 6 - - S
18.03.2019 08:00:00 0,3 -0,9 15 8 - - SSE
18.03.2019 07:00:00 0,4 -0,6 5 3 - - SSW
18.03.2019 06:00:00 0,3 -0,4 11 6 - - W
18.03.2019 05:00:00 0,1 -0,6 18 10 - - W
18.03.2019 04:00:00 -0,4 -0,9 15 8 - - W
18.03.2019 03:00:00 -0,6 -1,7 15 8 48 26 WNW
18.03.2019 02:00:00 -0,1 -2,1 35 19 - - NW
18.03.2019 01:00:00 -0,2 -1,4 26 14 - - W
18.03.2019 00:00:00 -0,5 -1,5 11 6 - - WNW
17.03.2019 23:00:00 -0,5 -3,2 15 8 - - NW
17.03.2019 22:00:00 0,7 -3,5 26 14 - - NW
17.03.2019 21:00:00 1,2 -4,3 29 16 - - NNW
17.03.2019 20:00:00 1,3 -4,2 35 19 54 29 NW
17.03.2019 19:00:00 1,3 -3,6 39 21 61 33 NNW
17.03.2019 18:00:00 1,7 -2,5 39 21 57 31 NNW
17.03.2019 17:00:00 2,1 -3,4 42 23 67 36 NW
17.03.2019 16:00:00 2,6 -4,1 48 26 76 41 NNW
17.03.2019 15:00:00 2,0 -3,5 59 32 78 42 NNW
17.03.2019 14:00:00 1,8 -2,4 44 24 63 34 NW
17.03.2019 13:00:00 1,5 -2,4 42 23 57 31 NNW
17.03.2019 12:00:00 0,9 -1,8 28 15 - - WNW
17.03.2019 11:00:00 -0,1 -1,8 29 16 46 25 W
17.03.2019 10:00:00 -0,8 -1,2 31 17 54 29 W
17.03.2019 09:00:00 -1,0 -1,3 35 19 54 29 W
17.03.2019 08:00:00 -1,4 -1,6 41 22 59 32 W
17.03.2019 07:00:00 -1,6 -1,6 39 21 52 28 W
17.03.2019 06:00:00 -1,7 -1,7 35 19 52 28 W
17.03.2019 05:00:00 -1,7 -1,7 35 19 52 28 W
17.03.2019 04:00:00 -1,7 -1,7 31 17 - - W
17.03.2019 03:00:00 -1,7 -1,7 34 18 54 29 W
17.03.2019 02:00:00 -1,8 -1,8 41 22 54 29 W
17.03.2019 01:00:00 -1,7 -1,7 39 21 50 27 W
17.03.2019 00:00:00 -1,7 -1,9 28 15 46 25 W
16.03.2019 23:00:00 -1,7 -1,9 29 16 46 25 W
16.03.2019 22:00:00 -1,7 -1,7 28 15 50 27 W
16.03.2019 21:00:00 -1,5 -1,5 28 15 - - WNW
16.03.2019 20:00:00 -1,5 -1,5 24 13 - - WNW
16.03.2019 19:00:00 -1,7 -1,9 31 17 46 25 NW
16.03.2019 18:00:00 -1,7 -1,8 39 21 61 33 NNW
16.03.2019 17:00:00 -1,4 -1,4 35 19 48 26 NW
16.03.2019 16:00:00 -1,4 -2,2 21 11 - - NNW
16.03.2019 15:00:00 -1,5 -2,5 24 13 - - NNE
16.03.2019 14:00:00 -1,7 -2,8 24 13 - - NE
16.03.2019 13:00:00 -1,8 -3,0 22 12 - - ENE
16.03.2019 12:00:00 -1,8 -2,9 18 10 50 27 ENE
16.03.2019 11:00:00 -1,6 -2,1 31 17 52 28 E
16.03.2019 10:00:00 -1,7 -2,1 22 12 - - ESE
16.03.2019 09:00:00 -1,6 -1,9 24 13 - - E
16.03.2019 08:00:00 -1,5 -1,8 18 10 - - ESE
16.03.2019 07:00:00 -1,4 -1,6 16 9 - - ESE
16.03.2019 06:00:00 -1,4 -1,7 13 7 - - E
16.03.2019 05:00:00 -0,7 -2,0 9 5 - - S
16.03.2019 04:00:00 -0,7 -1,2 5 3 - - W
16.03.2019 03:00:00 0,1 -2,5 5 3 - - SW
16.03.2019 02:00:00 -0,2 -1,0 26 14 - - W
16.03.2019 01:00:00 0,0 -1,4 29 16 - - W
16.03.2019 00:00:00 0,1 -1,5 29 16 - - W
15.03.2019 23:00:00 0,0 -0,5 16 9 - - W
15.03.2019 22:00:00 -0,6 -0,8 29 16 50 27 W
15.03.2019 21:00:00 -0,3 -1,3 39 21 63 34 W
15.03.2019 20:00:00 0,1 -1,3 48 26 67 36 W
15.03.2019 19:00:00 -0,2 -1,2 41 22 83 45 W
15.03.2019 18:00:00 0,7 -2,2 42 23 74 40 W
15.03.2019 17:00:00 0,0 -0,7 44 24 72 39 WNW
15.03.2019 16:00:00 0,6 -1,3 46 25 83 45 W
15.03.2019 15:00:00 1,1 -0,7 59 32 89 48 W
15.03.2019 14:00:00 0,0 -0,3 57 31 85 46 W
15.03.2019 13:00:00 -0,8 -0,8 50 27 78 42 WNW
15.03.2019 12:00:00 -0,7 -0,8 54 29 72 39 W
15.03.2019 11:00:00 -0,6 -0,6 57 31 78 42 W
15.03.2019 10:00:00 -0,7 -0,7 57 31 87 47 W
15.03.2019 09:00:00 0,3 0,3 48 26 81 44 W
15.03.2019 08:00:00 -0,1 -0,1 57 31 80 43 W
15.03.2019 07:00:00 1,0 1,0 61 33 81 44 WNW
15.03.2019 06:00:00 2,0 2,0 55 30 89 48 W
15.03.2019 05:00:00 2,3 2,3 52 28 85 46 W
15.03.2019 04:00:00 3,8 3,7 55 30 85 46 W
15.03.2019 03:00:00 2,8 2,4 35 19 61 33 SW
15.03.2019 02:00:00 2,4 1,9 42 23 63 34 SSW
15.03.2019 01:00:00 2,5 1,6 31 17 46 25 SW
15.03.2019 00:00:00 1,6 1,3 29 16 - - SSW
14.03.2019 23:00:00 1,6 1,3 26 14 54 29 W
14.03.2019 22:00:00 2,3 1,5 34 18 50 27 WSW
14.03.2019 21:00:00 1,7 1,4 31 17 54 29 WSW
14.03.2019 20:00:00 1,7 1,7 34 18 61 33 W
14.03.2019 19:00:00 2,1 0,9 48 26 65 35 W
14.03.2019 18:00:00 2,5 1,1 55 30 72 39 W
14.03.2019 17:00:00 2,5 1,7 41 22 57 31 W
14.03.2019 16:00:00 2,5 1,6 28 15 63 34 W
14.03.2019 15:00:00 2,5 1,0 35 19 68 37 W
14.03.2019 14:00:00 2,7 1,4 46 25 70 38 W
14.03.2019 13:00:00 3,3 3,0 48 26 67 36 WNW
14.03.2019 12:00:00 2,1 2,1 42 23 72 39 W
14.03.2019 11:00:00 1,7 1,7 52 28 78 42 WNW
14.03.2019 10:00:00 2,4 2,4 52 28 72 39 WNW
14.03.2019 09:00:00 2,7 2,7 50 27 67 36 WNW
14.03.2019 08:00:00 2,2 2,2 37 20 65 35 W
14.03.2019 07:00:00 2,4 2,4 39 21 54 29 W
14.03.2019 06:00:00 2,2 2,2 35 19 55 30 W
14.03.2019 05:00:00 2,2 2,2 41 22 52 28 W
14.03.2019 04:00:00 3,0 3,0 37 20 55 30 W
14.03.2019 03:00:00 3,5 3,5 37 20 52 28 W
14.03.2019 02:00:00 3,5 3,5 42 23 59 32 W
14.03.2019 01:00:00 3,7 3,7 44 24 76 41 W
14.03.2019 00:00:00 4,2 4,2 59 32 83 45 W
13.03.2019 23:00:00 4,1 4,1 57 31 96 52 W
13.03.2019 22:00:00 4,4 4,0 55 30 91 49 W
13.03.2019 21:00:00 3,8 3,1 52 28 83 45 WSW
13.03.2019 20:00:00 1,3 1,3 35 19 55 30 W
13.03.2019 19:00:00 1,0 1,0 37 20 65 35 W
13.03.2019 18:00:00 2,0 0,9 52 28 68 37 W
13.03.2019 17:00:00 2,2 1,7 52 28 78 42 W
13.03.2019 16:00:00 2,3 0,2 50 27 65 35 W
13.03.2019 15:00:00 2,0 0,8 46 25 70 38 WNW
13.03.2019 14:00:00 3,3 0,5 48 26 72 39 WNW
13.03.2019 13:00:00 3,8 0,0 57 31 70 38 WNW
13.03.2019 12:00:00 4,3 0,2 48 26 68 37 WNW
13.03.2019 11:00:00 4,0 -1,0 52 28 70 38 WNW
13.03.2019 10:00:00 2,4 0,4 37 20 80 43 NW
13.03.2019 09:00:00 2,0 0,0 57 31 72 39 NW
13.03.2019 08:00:00 2,3 1,8 37 20 63 34 NW

tt = temperature
td = dewpoint
ff = wind speed
fx = gusts
dd = wind direction

Next stations